createdAt,value
2023-03-17T00:01:17.162Z,98792.16
2023-03-17T00:03:46.354Z,98787.84
2023-03-17T00:06:17.757Z,98796.41
2023-03-17T00:08:46.293Z,98793.00
2023-03-17T00:11:16.070Z,98790.41
2023-03-17T00:13:44.586Z,98789.50
2023-03-17T00:16:17.140Z,98791.22
2023-03-17T00:18:44.766Z,98803.25
2023-03-17T00:21:17.506Z,98804.16
2023-03-17T00:23:49.695Z,98808.44
2023-03-17T00:26:16.589Z,98804.16
2023-03-17T00:28:43.308Z,98808.44
2023-03-17T00:31:15.247Z,98812.75
2023-03-17T00:33:43.231Z,98819.63
2023-03-17T00:36:15.744Z,98817.84
2023-03-17T00:38:42.603Z,98813.53
2023-03-17T00:41:10.874Z,98813.50
2023-03-17T00:43:37.382Z,98810.91
2023-03-17T00:46:14.744Z,98823.03
2023-03-17T00:48:43.501Z,98819.56
2023-03-17T00:51:11.430Z,98824.75
2023-03-17T00:53:38.009Z,98824.75
2023-03-17T00:56:11.861Z,98821.25
2023-03-17T00:58:38.410Z,98823.88
2023-03-17T01:01:05.184Z,98834.22
2023-03-17T01:03:33.092Z,98832.47
2023-03-17T01:06:00.468Z,98831.63
2023-03-17T01:08:30.088Z,98826.44
2023-03-17T01:10:57.281Z,98829.81
2023-03-17T01:13:24.312Z,98823.81
2023-03-17T01:15:52.413Z,98819.47
2023-03-17T01:18:22.776Z,98810.81
2023-03-17T01:20:50.573Z,98810.81
2023-03-17T01:23:17.629Z,98808.25
2023-03-17T01:25:44.599Z,98805.66
2023-03-17T01:28:16.793Z,98811.66
2023-03-17T01:30:43.773Z,98814.28
2023-03-17T01:33:13.467Z,98815.19
2023-03-17T01:35:41.923Z,98802.25
2023-03-17T01:38:09.908Z,98807.44
2023-03-17T01:40:42.632Z,98804.03
2023-03-17T01:54:48.302Z,98802.47
2023-03-17T01:59:55.578Z,98807.72
2023-03-17T02:02:28.932Z,98797.41
2023-03-17T02:04:55.515Z,98802.59
2023-03-17T02:07:24.025Z,98799.19
2023-03-17T02:09:52.619Z,98799.19
2023-03-17T02:12:22.447Z,98807.81
2023-03-17T02:14:48.995Z,98810.38
2023-03-17T02:17:15.544Z,98807.00
2023-03-17T02:19:42.534Z,98800.94
2023-03-17T02:22:09.253Z,98797.47
2023-03-17T02:27:18.096Z,98797.47
2023-03-17T02:29:46.439Z,98798.38
2023-03-17T02:32:15.805Z,98788.91
2023-03-17T02:34:42.394Z,98775.13
2023-03-17T02:37:09.244Z,98779.47
2023-03-17T02:39:36.398Z,98782.09
2023-03-17T02:42:04.172Z,98768.25
2023-03-17T02:44:31.487Z,98768.25
2023-03-17T02:46:59.092Z,98764.88
2023-03-17T02:49:27.287Z,98769.19
2023-03-17T02:51:54.273Z,98777.84
2023-03-17T02:54:20.868Z,98782.22
2023-03-17T02:56:47.413Z,98785.78
2023-03-17T02:59:14.008Z,98787.63
2023-03-17T03:01:40.637Z,98794.53
2023-03-17T03:04:07.505Z,98791.94
2023-03-17T03:06:34.438Z,98785.06
2023-03-17T03:09:01.003Z,98785.97
2023-03-17T03:11:29.346Z,98785.09
2023-03-17T03:13:56.259Z,98785.97
2023-03-17T03:16:22.972Z,98797.25
2023-03-17T03:18:49.619Z,98792.09
2023-03-17T03:21:16.194Z,98788.75
2023-03-17T03:23:43.340Z,98787.88
2023-03-17T03:26:09.922Z,98802.53
2023-03-17T03:28:36.485Z,98801.69
2023-03-17T03:31:03.435Z,98803.47
2023-03-17T03:33:30.026Z,98807.81
2023-03-17T03:35:57.042Z,98801.84
2023-03-17T03:38:23.666Z,98799.28
2023-03-17T03:40:50.177Z,98796.72
2023-03-17T03:43:23.400Z,98791.59
2023-03-17T03:45:51.377Z,98777.88
2023-03-17T03:48:18.535Z,98791.59
2023-03-17T03:50:45.721Z,98783.03
2023-03-17T03:53:12.278Z,98776.06
2023-03-17T03:55:38.825Z,98780.38
2023-03-17T03:58:05.417Z,98777.00
2023-03-17T04:00:33.037Z,98783.03
2023-03-17T04:03:00.657Z,98786.50
2023-03-17T04:05:27.368Z,98774.50
2023-03-17T04:07:54.084Z,98784.91
2023-03-17T04:10:20.651Z,98790.91
2023-03-17T04:12:47.288Z,98783.22
2023-03-17T04:15:16.869Z,98778.94
2023-03-17T04:17:44.464Z,98790.25
2023-03-17T04:20:13.228Z,98785.19
2023-03-17T04:22:41.750Z,98781.78
2023-03-17T04:25:10.322Z,98776.66
2023-03-17T04:27:37.521Z,98775.06
2023-03-17T04:30:05.466Z,98769.94
2023-03-17T04:32:32.251Z,98775.16
2023-03-17T04:34:58.890Z,98775.22
2023-03-17T04:37:25.742Z,98787.25
2023-03-17T04:39:52.339Z,98773.50
2023-03-17T04:42:19.205Z,98775.34
2023-03-17T04:44:46.236Z,98780.44
2023-03-17T04:47:12.781Z,98781.34
2023-03-17T04:49:39.495Z,98784.78
2023-03-17T04:52:06.785Z,98792.59
2023-03-17T04:54:33.360Z,98793.47
2023-03-17T04:56:59.968Z,98782.25
2023-03-17T04:59:27.368Z,98786.63
2023-03-17T05:01:53.919Z,98795.25
2023-03-17T05:04:31.144Z,98784.97
2023-03-17T05:06:58.292Z,98791.94
2023-03-17T05:09:26.924Z,98801.44
2023-03-17T05:11:53.576Z,98794.63
2023-03-17T05:14:20.522Z,98799.78
2023-03-17T05:16:48.471Z,98804.09
2023-03-17T05:19:16.411Z,98799.81
2023-03-17T05:21:43.008Z,98796.41
2023-03-17T05:24:09.977Z,98796.38
2023-03-17T05:26:36.561Z,98805.09
2023-03-17T05:29:03.529Z,98798.25
2023-03-17T05:31:31.102Z,98794.81
2023-03-17T05:33:58.874Z,98800.03
2023-03-17T05:36:25.572Z,98805.38
2023-03-17T05:38:52.488Z,98813.13
2023-03-17T05:41:19.329Z,98804.53
2023-03-17T05:43:46.140Z,98808.03
2023-03-17T05:46:13.017Z,98815.81
2023-03-17T05:48:39.612Z,98814.13
2023-03-17T05:51:06.596Z,98810.72
2023-03-17T05:53:33.397Z,98817.63
2023-03-17T05:55:59.921Z,98819.31
2023-03-17T05:58:26.936Z,98815.94
2023-03-17T06:00:53.662Z,98817.63
2023-03-17T06:03:21.450Z,98814.28
2023-03-17T06:05:48.256Z,98821.19
2023-03-17T06:08:15.057Z,98810.03
2023-03-17T06:10:43.115Z,98806.56
2023-03-17T06:13:11.123Z,98815.22
2023-03-17T06:15:37.852Z,98822.16
2023-03-17T06:18:05.705Z,98814.38
2023-03-17T06:20:33.159Z,98815.25
2023-03-17T06:23:05.563Z,98817.88
2023-03-17T06:25:34.463Z,98827.34
2023-03-17T06:28:02.882Z,98820.50
2023-03-17T06:30:30.799Z,98818.75
2023-03-17T06:32:57.396Z,98813.59
2023-03-17T06:35:24.802Z,98812.69
2023-03-17T06:37:51.687Z,98814.41
2023-03-17T06:40:18.369Z,98814.41
2023-03-17T06:42:45.065Z,98816.97
2023-03-17T06:45:12.925Z,98825.59
2023-03-17T06:47:39.820Z,98826.34
2023-03-17T06:50:09.712Z,98822.06
2023-03-17T06:52:37.283Z,98816.03
2023-03-17T06:55:04.484Z,98816.16
2023-03-17T06:57:31.811Z,98832.44
2023-03-17T06:59:58.844Z,98819.56
2023-03-17T07:02:25.565Z,98823.81
2023-03-17T07:04:52.335Z,98812.59
2023-03-17T07:07:20.836Z,98824.56
2023-03-17T07:09:47.914Z,98824.44
2023-03-17T07:12:14.683Z,98825.19
2023-03-17T07:14:41.774Z,98814.75
2023-03-17T07:17:12.921Z,98815.44
2023-03-17T07:19:40.656Z,98817.94
2023-03-17T07:22:08.212Z,98818.75
2023-03-17T07:24:34.789Z,98823.91
2023-03-17T07:27:01.476Z,98826.38
2023-03-17T07:29:29.314Z,98834.16
2023-03-17T07:31:56.102Z,98835.69
2023-03-17T07:34:23.209Z,98837.38
2023-03-17T07:36:49.837Z,98841.63
2023-03-17T07:39:16.755Z,98847.59
2023-03-17T07:41:44.291Z,98850.19
2023-03-17T07:44:11.502Z,98843.28
2023-03-17T07:46:39.071Z,98858.28
2023-03-17T07:49:06.292Z,98845.94
2023-03-17T07:51:33.119Z,98848.84
2023-03-17T07:54:04.015Z,98845.47
2023-03-17T07:56:32.869Z,98853.75
2023-03-17T07:58:59.992Z,98841.16
2023-03-17T08:01:27.963Z,98840.84
2023-03-17T08:03:55.703Z,98849.38
2023-03-17T08:06:24.577Z,98862.41
2023-03-17T08:08:52.436Z,98851.75
2023-03-17T08:11:20.060Z,98852.34
2023-03-17T08:13:47.906Z,98852.91
2023-03-17T08:16:14.468Z,98851.72
2023-03-17T08:18:41.168Z,98851.09
2023-03-17T08:21:07.995Z,98853.84
2023-03-17T08:23:34.698Z,98866.06
2023-03-17T08:26:03.328Z,98865.47
2023-03-17T08:28:30.717Z,98868.03
2023-03-17T08:31:17.163Z,98863.81
2023-03-17T08:33:48.732Z,98867.09
2023-03-17T08:36:18.619Z,98867.94
2023-03-17T08:38:46.685Z,98861.69
2023-03-17T08:41:16.713Z,98866.81
2023-03-17T08:43:43.973Z,98860.97
2023-03-17T08:48:56.533Z,98866.31
2023-03-17T08:51:26.690Z,98880.38
2023-03-17T08:53:54.996Z,98879.66
2023-03-17T08:56:22.703Z,98880.78
2023-03-17T08:58:49.505Z,98888.78
2023-03-17T09:01:17.263Z,98882.16
2023-03-17T09:03:45.221Z,98891.75
2023-03-17T09:06:12.380Z,98888.34
2023-03-17T09:08:44.541Z,98890.97
2023-03-17T09:11:14.166Z,98885.38
2023-03-17T09:13:41.516Z,98894.97
2023-03-17T09:16:08.951Z,98896.88
2023-03-17T09:18:35.946Z,98897.41
2023-03-17T09:21:03.692Z,98903.19
2023-03-17T09:23:30.284Z,98891.13
2023-03-17T09:25:57.237Z,98898.25
2023-03-17T09:28:24.675Z,98902.88
2023-03-17T09:30:51.589Z,98899.25
2023-03-17T09:33:19.026Z,98888.00
2023-03-17T09:35:45.608Z,98887.72
2023-03-17T09:38:12.834Z,98885.56
2023-03-17T09:40:48.037Z,98886.59
2023-03-17T09:45:52.255Z,98877.59
2023-03-17T09:48:44.791Z,98879.75
2023-03-17T09:51:15.528Z,98877.88
2023-03-17T09:53:51.409Z,98879.44
2023-03-17T09:56:20.047Z,98888.97
2023-03-17T09:58:52.984Z,98885.44
2023-03-17T10:01:19.945Z,98895.31
2023-03-17T10:03:47.548Z,98898.41
2023-03-17T10:06:36.834Z,98906.47
2023-03-17T10:11:44.196Z,98909.22
2023-03-17T10:14:28.661Z,98904.78
2023-03-17T10:17:05.842Z,98898.13
2023-03-17T10:19:41.724Z,98898.34
2023-03-17T10:24:57.649Z,98912.56
2023-03-17T10:27:24.945Z,98917.25
2023-03-17T10:29:51.645Z,98916.78
2023-03-17T10:32:18.222Z,98910.03
2023-03-17T10:34:45.104Z,98913.44
2023-03-17T10:39:53.504Z,98908.97
2023-03-17T10:45:20.814Z,98907.81
2023-03-17T10:47:50.085Z,98905.22
2023-03-17T10:53:27.946Z,98908.66
2023-03-17T10:56:01.067Z,98918.88
2023-03-17T11:01:17.888Z,98922.91
2023-03-17T11:03:44.572Z,98925.59
2023-03-17T11:06:14.954Z,98930.91
2023-03-17T11:08:49.675Z,98922.91
2023-03-17T11:11:35.429Z,98924.69
2023-03-17T11:22:16.706Z,98908.75
2023-03-17T11:24:56.879Z,98900.66
2023-03-17T11:27:36.966Z,98903.78
2023-03-17T11:32:50.937Z,98890.69
2023-03-17T11:38:22.387Z,98899.25
2023-03-17T11:46:50.710Z,98907.13
2023-03-17T11:52:03.970Z,98902.13
2023-03-17T12:03:08.744Z,98901.19
2023-03-17T12:05:37.275Z,98903.72
2023-03-17T12:10:46.293Z,98904.34
2023-03-17T12:13:19.561Z,98897.31
2023-03-17T12:15:52.905Z,98898.75
2023-03-17T12:18:34.756Z,98881.19
2023-03-17T12:21:11.970Z,98880.75
2023-03-17T12:27:05.977Z,98878.38
2023-03-17T12:32:26.451Z,98887.72
2023-03-17T12:34:57.490Z,98890.78
2023-03-17T12:37:27.514Z,98902.25
2023-03-17T12:42:42.584Z,98899.22
2023-03-17T12:51:06.880Z,98881.19
2023-03-17T12:53:36.772Z,98879.38
2023-03-17T12:56:10.278Z,98875.25
2023-03-17T12:58:45.212Z,98869.50
2023-03-17T13:04:27.858Z,98875.06
2023-03-17T13:23:42.701Z,98858.97
2023-03-17T13:26:13.333Z,98852.72
2023-03-17T13:28:43.758Z,98854.25
2023-03-17T13:31:35.460Z,98835.97
2023-03-17T13:36:47.990Z,98834.03
2023-03-17T13:39:54.546Z,98834.72
2023-03-17T13:45:34.500Z,98830.66
2023-03-17T13:48:37.513Z,98826.97
2023-03-17T13:53:49.551Z,98822.06
2023-03-17T13:56:22.448Z,98827.28
2023-03-17T13:59:05.978Z,98825.47
2023-03-17T14:01:40.849Z,98828.69
2023-03-17T14:04:17.661Z,98822.31
2023-03-17T14:06:46.785Z,98816.63
2023-03-17T14:09:38.034Z,98809.91
2023-03-17T14:12:36.793Z,98816.06
2023-03-17T14:15:16.525Z,98815.53
2023-03-17T14:17:50.357Z,98814.22
2023-03-17T14:22:57.400Z,98812.72
2023-03-17T14:25:30.890Z,98809.91
2023-03-17T14:27:58.358Z,98815.72
2023-03-17T14:30:28.675Z,98808.38
2023-03-17T14:33:02.186Z,98806.56
2023-03-17T14:35:32.151Z,98807.94
2023-03-17T14:38:00.311Z,98810.91
2023-03-17T14:40:32.364Z,98805.13
2023-03-17T14:42:58.944Z,98803.69
2023-03-17T14:45:48.577Z,98803.13
2023-03-17T14:48:18.018Z,98804.22
2023-03-17T14:50:55.852Z,98800.94
2023-03-17T14:53:24.244Z,98806.03
2023-03-17T14:55:52.825Z,98807.50
2023-03-17T14:58:31.360Z,98793.78
2023-03-17T15:01:15.051Z,98792.50
2023-03-17T15:03:56.366Z,98785.97
2023-03-17T15:06:29.952Z,98787.09
2023-03-17T15:09:00.443Z,98784.41
2023-03-17T15:11:36.834Z,98788.94
2023-03-17T15:14:12.618Z,98794.84
2023-03-17T15:16:40.900Z,98795.97
2023-03-17T15:19:19.448Z,98792.53
2023-03-17T15:21:46.297Z,98799.06
2023-03-17T15:24:36.472Z,98798.94
2023-03-17T15:27:11.261Z,98793.47
2023-03-17T15:29:37.819Z,98793.16
2023-03-17T15:32:12.765Z,98791.75
2023-03-17T15:34:40.689Z,98786.97
2023-03-17T15:37:17.576Z,98787.38
2023-03-17T15:39:44.104Z,98788.16
2023-03-17T15:42:11.097Z,98784.13
2023-03-17T15:44:37.777Z,98785.81
2023-03-17T15:47:04.993Z,98787.75
2023-03-17T15:49:31.575Z,98782.78
2023-03-17T15:51:58.120Z,98796.50
2023-03-17T15:54:24.744Z,98790.47
2023-03-17T15:56:51.507Z,98788.88
2023-03-17T15:59:21.452Z,98793.34
2023-03-17T16:01:49.436Z,98788.06
2023-03-17T16:04:17.973Z,98795.31
2023-03-17T16:06:44.738Z,98784.94
2023-03-17T16:09:15.395Z,98791.84
2023-03-17T16:11:41.986Z,98798.72
2023-03-17T16:14:10.573Z,98798.16
2023-03-17T16:16:40.976Z,98801.69
2023-03-17T16:19:16.345Z,98800.81
2023-03-17T16:21:43.355Z,98799.19
2023-03-17T16:24:18.871Z,98788.84
2023-03-17T16:26:45.672Z,98791.50
2023-03-17T16:29:14.510Z,98797.56
2023-03-17T16:31:41.406Z,98802.22
2023-03-17T16:34:17.028Z,98788.91
2023-03-17T16:36:44.080Z,98794.09
2023-03-17T16:39:16.881Z,98795.91
2023-03-17T16:41:46.048Z,98792.00
2023-03-17T16:44:13.994Z,98791.75
2023-03-17T16:46:44.814Z,98787.31
2023-03-17T16:49:14.883Z,98791.88
2023-03-17T16:51:42.039Z,98796.31
2023-03-17T16:54:10.041Z,98794.84
2023-03-17T16:56:38.587Z,98790.78
2023-03-17T16:59:07.684Z,98798.69
2023-03-17T17:01:34.689Z,98790.22
2023-03-17T17:04:01.401Z,98792.19
2023-03-17T17:06:28.084Z,98791.50
2023-03-17T17:08:54.758Z,98795.25
2023-03-17T17:11:21.652Z,98799.81
2023-03-17T17:13:49.416Z,98805.97
2023-03-17T17:16:29.329Z,98804.53
2023-03-17T17:18:57.210Z,98812.38
2023-03-17T17:21:23.876Z,98815.91
2023-03-17T17:23:52.749Z,98824.56
2023-03-17T17:26:19.696Z,98823.16
2023-03-17T17:28:46.410Z,98819.59
2023-03-17T17:31:13.032Z,98828.38
2023-03-17T17:33:40.073Z,98826.91
2023-03-17T17:36:12.723Z,98821.81
2023-03-17T17:38:39.312Z,98822.81
2023-03-17T17:41:07.034Z,98823.84
2023-03-17T17:43:33.721Z,98825.78
2023-03-17T17:46:00.994Z,98830.28
2023-03-17T17:48:28.134Z,98826.09
2023-03-17T17:50:56.179Z,98831.41
2023-03-17T17:53:22.887Z,98830.00
2023-03-17T17:55:49.932Z,98837.06
2023-03-17T17:58:19.195Z,98830.31
2023-03-17T18:00:46.215Z,98854.81
2023-03-17T18:03:13.162Z,98852.44
2023-03-17T18:05:39.856Z,98858.75
2023-03-17T18:08:06.558Z,98854.56
2023-03-17T18:10:34.332Z,98853.94
2023-03-17T18:13:01.698Z,98855.03
2023-03-17T18:15:28.722Z,98861.34
2023-03-17T18:17:56.062Z,98859.75
2023-03-17T18:20:23.634Z,98864.22
2023-03-17T18:22:50.777Z,98861.03
2023-03-17T18:25:18.078Z,98861.22
2023-03-17T18:27:45.657Z,98870.91
2023-03-17T18:30:18.734Z,98872.81
2023-03-17T18:32:45.700Z,98871.28
2023-03-17T18:35:16.534Z,98871.47
2023-03-17T18:37:44.033Z,98875.97
2023-03-17T18:40:15.368Z,98875.28
2023-03-17T18:42:44.738Z,98882.34
2023-03-17T18:45:12.136Z,98880.03
2023-03-17T18:47:39.173Z,98888.72
2023-03-17T18:50:08.083Z,98888.84
2023-03-17T18:52:37.366Z,98886.47
2023-03-17T18:55:04.518Z,98883.94
2023-03-17T18:57:31.288Z,98884.97
2023-03-17T18:59:57.859Z,98889.31
2023-03-17T19:02:24.868Z,98885.13
2023-03-17T19:04:51.460Z,98887.78
2023-03-17T19:07:18.616Z,98887.88
2023-03-17T19:09:45.326Z,98890.56
2023-03-17T19:12:12.245Z,98904.53
2023-03-17T19:14:39.098Z,98899.34
2023-03-17T19:17:06.288Z,98901.09
2023-03-17T19:19:33.914Z,98897.63
2023-03-17T19:22:01.063Z,98899.34
2023-03-17T19:24:27.601Z,98895.84
2023-03-17T19:26:54.202Z,98900.13
2023-03-17T19:29:20.923Z,98902.72
2023-03-17T19:31:48.619Z,98898.38
2023-03-17T19:34:15.458Z,98907.84
2023-03-17T19:36:46.372Z,98910.41
2023-03-17T19:39:14.050Z,98903.44
2023-03-17T19:41:40.865Z,98901.75
2023-03-17T19:44:07.809Z,98902.66
2023-03-17T19:46:36.138Z,98908.00
2023-03-17T19:49:03.150Z,98906.97
2023-03-17T19:51:31.806Z,98905.41
2023-03-17T19:53:58.470Z,98904.53
2023-03-17T19:56:25.147Z,98906.22
2023-03-17T19:58:51.992Z,98909.72
2023-03-17T20:01:18.754Z,98917.56
2023-03-17T20:03:45.780Z,98914.91
2023-03-17T20:06:13.431Z,98918.38
2023-03-17T20:08:41.212Z,98912.25
2023-03-17T20:11:07.984Z,98918.34
2023-03-17T20:13:35.846Z,98917.56
2023-03-17T20:16:02.970Z,98918.38
2023-03-17T20:18:29.815Z,98919.22
2023-03-17T20:20:57.731Z,98925.34
2023-03-17T20:23:25.173Z,98924.56
2023-03-17T20:25:52.607Z,98920.22
2023-03-17T20:28:21.478Z,98930.63
2023-03-17T20:30:49.341Z,98928.91
2023-03-17T20:33:16.793Z,98928.91
2023-03-17T20:35:46.912Z,98934.19
2023-03-17T20:38:14.694Z,98936.84
2023-03-17T20:40:42.090Z,98936.06
2023-03-17T20:43:09.471Z,98939.53
2023-03-17T20:45:37.071Z,98936.22
2023-03-17T20:48:06.084Z,98939.69
2023-03-17T20:50:34.389Z,98945.84
2023-03-17T20:53:01.704Z,98944.28
2023-03-17T20:55:28.942Z,98943.34
2023-03-17T20:57:58.703Z,98946.97
2023-03-17T21:00:26.245Z,98951.28
2023-03-17T21:02:53.240Z,98956.53
2023-03-17T21:05:23.832Z,98960.19
2023-03-17T21:07:50.917Z,98956.63
2023-03-17T21:10:18.153Z,98950.66
2023-03-17T21:12:45.380Z,98955.88
2023-03-17T21:15:12.997Z,98956.84
2023-03-17T21:17:40.228Z,98951.72
2023-03-17T21:20:09.586Z,98951.88
2023-03-17T21:22:36.977Z,98954.47
2023-03-17T21:25:04.718Z,98957.19
2023-03-17T21:27:31.407Z,98952.88
2023-03-17T21:29:58.082Z,98959.88
2023-03-17T21:32:25.071Z,98960.78
2023-03-17T21:34:51.744Z,98953.06
2023-03-17T21:37:18.847Z,98962.59
2023-03-17T21:39:45.926Z,98947.97
2023-03-17T21:42:12.874Z,98960.09
2023-03-17T21:44:39.675Z,98960.16
2023-03-17T21:47:07.682Z,98961.97
2023-03-17T21:49:34.254Z,98959.38
2023-03-17T21:52:01.296Z,98965.50
2023-03-17T21:54:28.419Z,98974.16
2023-03-17T21:56:54.937Z,98966.47
2023-03-17T21:59:21.447Z,98967.28
2023-03-17T22:01:52.082Z,98963.09
2023-03-17T22:04:18.928Z,98963.13
2023-03-17T22:06:45.541Z,98960.78
2023-03-17T22:09:13.088Z,98958.94
2023-03-17T22:11:39.624Z,98964.13
2023-03-17T22:14:06.543Z,98962.38
2023-03-17T22:16:33.221Z,98962.53
2023-03-17T22:19:00.059Z,98960.75
2023-03-17T22:21:26.697Z,98959.00
2023-03-17T22:23:53.233Z,98953.97
2023-03-17T22:26:21.810Z,98957.38
2023-03-17T22:28:50.012Z,98956.50
2023-03-17T22:31:19.858Z,98955.69
2023-03-17T22:33:48.901Z,98960.84
2023-03-17T22:36:15.851Z,98962.66
2023-03-17T22:38:42.642Z,98960.06
2023-03-17T22:41:13.068Z,98963.47
2023-03-17T22:43:40.387Z,98967.03
2023-03-17T22:46:07.526Z,98966.19
2023-03-17T22:48:36.154Z,98964.63
2023-03-17T22:51:04.411Z,98968.06
2023-03-17T22:53:31.618Z,98961.25
2023-03-17T22:55:59.003Z,98963.88
2023-03-17T22:58:26.145Z,98971.59
2023-03-17T23:00:53.762Z,98969.03
2023-03-17T23:03:21.202Z,98963.84
2023-03-17T23:05:49.709Z,98973.50
2023-03-17T23:08:17.911Z,98976.06
2023-03-17T23:10:45.579Z,98975.22
2023-03-17T23:13:12.701Z,98983.94
2023-03-17T23:15:39.624Z,98977.88
2023-03-17T23:18:06.479Z,98981.41
2023-03-17T23:20:33.760Z,98987.56
2023-03-17T23:23:01.804Z,98991.00
2023-03-17T23:25:28.334Z,98987.56
2023-03-17T23:27:55.222Z,98981.53
2023-03-17T23:30:21.913Z,98978.94
2023-03-17T23:32:49.315Z,98975.59
2023-03-17T23:35:16.568Z,98973.88
2023-03-17T23:37:43.218Z,98980.88
2023-03-17T23:40:13.706Z,98976.56
2023-03-17T23:42:40.412Z,98973.06
2023-03-17T23:45:08.626Z,98972.22
2023-03-17T23:47:35.257Z,98974.75
2023-03-17T23:50:02.295Z,98986.09
2023-03-17T23:52:28.940Z,98984.44
2023-03-17T23:54:55.523Z,98980.16
2023-03-17T23:57:22.852Z,98977.47
2023-03-17T23:59:49.534Z,98976.59
